Time;durP1;ratioP1;P1;durP2;ratioP2;P2;SDS_P1;SDS_P2;PMS_P1;PMS_P2;Temp;Humidity;BMP_temperature;BMP_pressure;BME280_temperature;BME280_humidity;BME280_pressure;Samples;Min_cycle;Max_cycle;Signal;HPM_P1;HPM_P2
2021/10/25 00:01:17;;;;;;;2.03;0.65;;;;;;;;;;4952635;28;20043;-62
2021/10/25 00:03:43;;;;;;;2.20;0.70;;;;;;;;;;4953717;28;20043;-59
2021/10/25 00:06:09;;;;;;;3.72;1.10;;;;;;;;;;4955288;28;20038;-60
2021/10/25 00:08:35;;;;;;;3.13;1.10;;;;;;;;;;4956387;28;20572;-59
2021/10/25 00:11:01;;;;;;;3.13;1.10;;;;;;;;;;4956089;28;20035;-59
2021/10/25 00:13:27;;;;;;;2.42;0.88;;;;;;;;;;4954532;28;20130;-59
2021/10/25 00:15:53;;;;;;;2.40;0.90;;;;;;;;;;4954978;28;20114;-59
2021/10/25 00:18:19;;;;;;;2.60;0.95;;;;;;;;;;4954962;28;20516;-61
2021/10/25 00:20:45;;;;;;;3.08;1.20;;;;;;;;;;4955942;28;20043;-59
2021/10/25 00:23:11;;;;;;;7.43;1.00;;;;;;;;;;4952502;28;20047;-60
2021/10/25 00:25:36;;;;;;;2.92;0.90;;;;;;;;;;4951394;28;22254;-59
2021/10/25 00:28:02;;;;;;;3.35;1.00;;;;;;;;;;4950839;28;20973;-59
2021/10/25 00:30:28;;;;;;;2.42;0.80;;;;;;;;;;4949948;28;20492;-57
2021/10/25 00:32:54;;;;;;;2.75;0.90;;;;;;;;;;4951564;28;20046;-59
2021/10/25 00:35:20;;;;;;;1.65;0.60;;;;;;;;;;4952642;28;20153;-56
2021/10/25 00:37:47;;;;;;;2.75;0.70;;;;;;;;;;4955087;28;20083;-57
2021/10/25 00:40:13;;;;;;;3.00;1.08;;;;;;;;;;4954864;28;20066;-60
2021/10/25 00:42:39;;;;;;;3.70;0.90;;;;;;;;;;4953504;28;20364;-59
2021/10/25 00:45:06;;;;;;;2.40;0.80;;;;;;;;;;4955276;28;20515;-58
2021/10/25 00:47:31;;;;;;;2.65;0.90;;;;;;;;;;4970231;28;20610;-59
2021/10/25 00:49:57;;;;;;;3.25;1.02;;;;;;;;;;4953660;28;20130;-59
2021/10/25 00:52:23;;;;;;;2.30;0.80;;;;;;;;;;4953134;28;20058;-59
2021/10/25 00:54:49;;;;;;;2.40;0.70;;;;;;;;;;4954933;28;20047;-57
2021/10/25 00:57:15;;;;;;;2.13;0.70;;;;;;;;;;4954409;28;20031;-59
2021/10/25 00:59:41;;;;;;;3.58;1.00;;;;;;;;;;4953890;28;20638;-59
2021/10/25 01:02:06;;;;;;;4.70;0.90;;;;;;;;;;4953045;28;20476;-57
2021/10/25 01:04:33;;;;;;;2.45;0.80;;;;;;;;;;4953333;28;20035;-60
2021/10/25 01:06:59;;;;;;;3.25;0.82;;;;;;;;;;4953038;28;20133;-59
2021/10/25 01:09:26;;;;;;;2.58;0.90;;;;;;;;;;4951124;28;20077;-57
2021/10/25 01:11:52;;;;;;;2.70;0.90;;;;;;;;;;4952090;28;20038;-60
2021/10/25 01:14:19;;;;;;;3.45;0.95;;;;;;;;;;4954696;28;20060;-58
2021/10/25 01:16:45;;;;;;;2.47;0.80;;;;;;;;;;4952711;28;20089;-57
2021/10/25 01:19:11;;;;;;;3.30;1.00;;;;;;;;;;4953823;28;20897;-59
2021/10/25 01:21:37;;;;;;;2.70;1.00;;;;;;;;;;4951393;28;20059;-59
2021/10/25 01:24:03;;;;;;;2.50;0.80;;;;;;;;;;4968240;28;20242;-57
2021/10/25 01:26:29;;;;;;;2.60;0.80;;;;;;;;;;4953232;28;20460;-59
2021/10/25 01:28:54;;;;;;;5.43;1.25;;;;;;;;;;4953273;28;20059;-59
2021/10/25 01:31:21;;;;;;;3.38;1.08;;;;;;;;;;4953065;28;20122;-59
2021/10/25 01:33:47;;;;;;;2.88;0.80;;;;;;;;;;4951801;28;20067;-59
2021/10/25 01:36:13;;;;;;;2.60;0.80;;;;;;;;;;4954228;28;20532;-60
2021/10/25 01:38:40;;;;;;;2.35;0.80;;;;;;;;;;4950637;28;20057;-61
2021/10/25 01:41:06;;;;;;;7.32;2.22;;;;;;;;;;4950808;28;21811;-62
2021/10/25 01:43:32;;;;;;;4.43;0.95;;;;;;;;;;4951184;28;20259;-59
2021/10/25 01:45:58;;;;;;;1.95;0.70;;;;;;;;;;4952012;28;20551;-58
2021/10/25 01:48:24;;;;;;;2.50;0.90;;;;;;;;;;4951875;28;20058;-60
2021/10/25 01:50:50;;;;;;;2.30;0.80;;;;;;;;;;4950754;28;20122;-59
2021/10/25 01:53:16;;;;;;;2.67;0.90;;;;;;;;;;4949718;28;20479;-59
2021/10/25 01:55:43;;;;;;;2.80;0.90;;;;;;;;;;4949339;28;20086;-60
2021/10/25 01:58:08;;;;;;;2.85;0.90;;;;;;;;;;4949737;28;20035;-59
2021/10/25 02:00:34;;;;;;;2.70;0.88;;;;;;;;;;4953110;28;20047;-60
2021/10/25 02:03:00;;;;;;;4.30;1.00;;;;;;;;;;4952689;28;20070;-59
2021/10/25 02:05:26;;;;;;;3.22;1.00;;;;;;;;;;4952820;28;20126;-60
2021/10/25 02:07:52;;;;;;;2.33;0.75;;;;;;;;;;4953866;28;20831;-61
2021/10/25 02:10:18;;;;;;;2.40;0.90;;;;;;;;;;4952635;28;20043;-60
2021/10/25 02:12:44;;;;;;;2.53;1.00;;;;;;;;;;4953213;28;20494;-58
2021/10/25 02:15:10;;;;;;;3.65;0.93;;;;;;;;;;4954491;28;20047;-59
2021/10/25 02:17:36;;;;;;;2.35;0.88;;;;;;;;;;4953152;28;20047;-60
2021/10/25 02:20:03;;;;;;;2.90;0.70;;;;;;;;;;4953935;28;20082;-61
2021/10/25 02:22:29;;;;;;;3.85;1.45;;;;;;;;;;4953763;28;20139;-59
2021/10/25 02:24:56;;;;;;;3.75;0.90;;;;;;;;;;4954847;28;20031;-60
2021/10/25 02:27:22;;;;;;;3.53;0.80;;;;;;;;;;4953670;28;20046;-61
2021/10/25 02:29:48;;;;;;;2.40;0.70;;;;;;;;;;4972035;28;20074;-60
2021/10/25 02:32:16;;;;;;;2.20;0.73;;;;;;;;;;4953797;28;20118;-60
2021/10/25 02:34:44;;;;;;;2.60;0.90;;;;;;;;;;4954946;28;20038;-59
2021/10/25 02:37:11;;;;;;;3.45;0.70;;;;;;;;;;4954647;28;20042;-60
2021/10/25 02:39:36;;;;;;;2.20;0.70;;;;;;;;;;4954338;28;20038;-61
2021/10/25 02:42:02;;;;;;;1.80;0.68;;;;;;;;;;4955332;28;20128;-62
2021/10/25 02:44:28;;;;;;;2.25;0.70;;;;;;;;;;4956566;28;20898;-61
2021/10/25 02:46:55;;;;;;;2.40;0.70;;;;;;;;;;4956137;28;20081;-61
2021/10/25 02:49:21;;;;;;;2.53;0.70;;;;;;;;;;4955936;28;20237;-62
2021/10/25 02:51:47;;;;;;;1.98;0.68;;;;;;;;;;4953116;28;20065;-64
2021/10/25 02:54:13;;;;;;;2.80;0.88;;;;;;;;;;4970683;28;20078;-60
2021/10/25 02:56:39;;;;;;;2.05;0.68;;;;;;;;;;4959813;28;20116;-61
2021/10/25 02:59:11;;;;;;;1.88;0.60;;;;;;;;;;4958386;28;20039;-63
2021/10/25 03:01:37;;;;;;;1.25;0.50;;;;;;;;;;4956963;28;20043;-60
2021/10/25 03:04:04;;;;;;;1.95;0.60;;;;;;;;;;4958763;28;20455;-61
2021/10/25 03:06:30;;;;;;;3.08;0.63;;;;;;;;;;4969946;28;20097;-63
2021/10/25 03:09:15;;;;;;;2.15;0.70;;;;;;;;;;4957067;28;20050;-61
2021/10/25 03:11:41;;;;;;;1.83;0.50;;;;;;;;;;4957834;28;20435;-60
2021/10/25 03:14:08;;;;;;;2.00;0.60;;;;;;;;;;4962145;28;20051;-59
2021/10/25 03:16:34;;;;;;;1.23;0.50;;;;;;;;;;4953524;28;20086;-61
2021/10/25 03:18:59;;;;;;;2.85;0.70;;;;;;;;;;4942526;28;20051;-63
2021/10/25 03:21:26;;;;;;;1.63;0.50;;;;;;;;;;4956763;28;20042;-60
2021/10/25 03:23:52;;;;;;;1.85;0.68;;;;;;;;;;4958908;28;20035;-60
2021/10/25 03:26:18;;;;;;;1.90;0.60;;;;;;;;;;4954690;28;20043;-57
2021/10/25 03:28:45;;;;;;;4.53;0.60;;;;;;;;;;4957234;28;20064;-61
2021/10/25 03:31:11;;;;;;;1.98;0.60;;;;;;;;;;4953716;28;20072;-61
2021/10/25 03:33:37;;;;;;;1.98;0.60;;;;;;;;;;4952569;28;20633;-59
2021/10/25 03:36:04;;;;;;;2.20;0.60;;;;;;;;;;4955700;28;20171;-60
2021/10/25 03:38:31;;;;;;;1.70;0.60;;;;;;;;;;4953568;28;20084;-59
2021/10/25 03:40:57;;;;;;;2.42;0.70;;;;;;;;;;4954754;28;20053;-58
2021/10/25 03:43:27;;;;;;;1.33;0.50;;;;;;;;;;4953592;28;20870;-59
2021/10/25 03:46:05;;;;;;;2.78;0.95;;;;;;;;;;4957789;28;20043;-60
2021/10/25 03:48:46;;;;;;;1.88;0.60;;;;;;;;;;4956235;28;20043;-59
2021/10/25 03:51:14;;;;;;;1.08;0.50;;;;;;;;;;4952875;28;20037;-59
2021/10/25 03:53:57;;;;;;;3.13;0.70;;;;;;;;;;4928420;28;20065;-59
2021/10/25 03:57:15;;;;;;;2.15;0.60;;;;;;;;;;4958887;28;20054;-59
2021/10/25 04:04:33;;;;;;;2.00;0.70;;;;;;;;;;4958958;28;20030;-58
2021/10/25 04:28:48;;;;;;;1.27;0.40;;;;;;;;;;4966123;28;20085;-57
2021/10/25 04:31:14;;;;;;;1.48;0.47;;;;;;;;;;4955502;28;20663;-60
2021/10/25 04:33:40;;;;;;;2.80;0.80;;;;;;;;;;4955459;28;20150;-59
2021/10/25 04:36:06;;;;;;;2.70;0.80;;;;;;;;;;4957186;28;20062;-59
2021/10/25 04:38:31;;;;;;;3.83;0.75;;;;;;;;;;4955480;28;20043;-59
2021/10/25 04:40:57;;;;;;;3.08;0.90;;;;;;;;;;4956111;28;20591;-61
2021/10/25 04:43:24;;;;;;;2.95;0.70;;;;;;;;;;4953088;28;20137;-58
2021/10/25 04:45:50;;;;;;;2.20;0.70;;;;;;;;;;4953308;28;20041;-59
2021/10/25 04:48:17;;;;;;;1.90;0.70;;;;;;;;;;4952802;28;20051;-59
2021/10/25 04:50:43;;;;;;;2.20;0.70;;;;;;;;;;4949543;28;20345;-59
2021/10/25 04:53:09;;;;;;;2.97;0.60;;;;;;;;;;4952469;28;20470;-57
2021/10/25 04:55:36;;;;;;;2.38;0.75;;;;;;;;;;4954690;28;20039;-59
2021/10/25 04:58:02;;;;;;;2.10;0.60;;;;;;;;;;4953403;28;20051;-59
2021/10/25 05:00:27;;;;;;;3.55;0.90;;;;;;;;;;4953753;28;20396;-60
2021/10/25 05:02:55;;;;;;;2.53;0.80;;;;;;;;;;4952945;28;20039;-56
2021/10/25 05:05:21;;;;;;;7.72;0.80;;;;;;;;;;4952117;28;20039;-59
2021/10/25 05:07:47;;;;;;;2.92;0.90;;;;;;;;;;4954604;28;20768;-60
2021/10/25 05:10:13;;;;;;;5.80;1.00;;;;;;;;;;4952740;28;20063;-59
2021/10/25 05:12:38;;;;;;;2.38;0.60;;;;;;;;;;4951666;28;20490;-60
2021/10/25 05:15:04;;;;;;;4.05;0.60;;;;;;;;;;4955485;28;20043;-59
2021/10/25 05:17:30;;;;;;;1.85;0.70;;;;;;;;;;4952252;28;20117;-59
2021/10/25 05:19:56;;;;;;;2.40;0.80;;;;;;;;;;4951977;28;20047;-59
2021/10/25 05:22:23;;;;;;;1.88;0.70;;;;;;;;;;4952622;28;20034;-58
2021/10/25 05:24:49;;;;;;;2.22;0.80;;;;;;;;;;4953478;28;20042;-60
2021/10/25 05:27:16;;;;;;;2.63;0.90;;;;;;;;;;4952309;28;20222;-60
2021/10/25 05:29:42;;;;;;;2.20;0.70;;;;;;;;;;4952193;28;20047;-60
2021/10/25 05:32:08;;;;;;;1.63;0.52;;;;;;;;;;4951352;28;20097;-60
2021/10/25 05:34:34;;;;;;;1.80;0.60;;;;;;;;;;4952175;28;20066;-59
2021/10/25 05:37:01;;;;;;;2.88;0.85;;;;;;;;;;4952372;28;20504;-58
2021/10/25 05:39:27;;;;;;;2.15;0.70;;;;;;;;;;4950677;28;20051;-60
2021/10/25 05:41:53;;;;;;;3.38;0.70;;;;;;;;;;4951468;28;20108;-59
2021/10/25 05:44:21;;;;;;;2.40;0.60;;;;;;;;;;4950609;28;20042;-59
2021/10/25 05:46:46;;;;;;;4.22;0.77;;;;;;;;;;4950626;28;20685;-59
2021/10/25 05:49:12;;;;;;;2.08;0.65;;;;;;;;;;4952530;28;20112;-61
2021/10/25 05:51:38;;;;;;;2.00;0.60;;;;;;;;;;4951277;28;20046;-59
2021/10/25 05:54:05;;;;;;;2.00;0.70;;;;;;;;;;4955373;28;20122;-59
2021/10/25 05:56:31;;;;;;;2.25;0.70;;;;;;;;;;4954075;28;20043;-58
2021/10/25 05:58:57;;;;;;;2.03;0.65;;;;;;;;;;4951635;28;20054;-57
2021/10/25 06:01:37;;;;;;;7.30;0.90;;;;;;;;;;4950033;28;20946;-59
2021/10/25 06:04:05;;;;;;;1.80;0.50;;;;;;;;;;4952819;28;20058;-58
2021/10/25 06:06:32;;;;;;;2.15;0.70;;;;;;;;;;4951671;28;20530;-59
2021/10/25 06:08:58;;;;;;;2.38;0.88;;;;;;;;;;4958629;28;20069;-59
2021/10/25 06:11:25;;;;;;;3.05;0.77;;;;;;;;;;4951941;28;20824;-57
2021/10/25 06:13:54;;;;;;;2.20;0.77;;;;;;;;;;4953527;28;20055;-58
2021/10/25 06:16:24;;;;;;;2.45;0.82;;;;;;;;;;4953080;28;20475;-58
2021/10/25 06:18:50;;;;;;;2.78;0.85;;;;;;;;;;4952782;28;20059;-59
2021/10/25 06:21:16;;;;;;;2.80;0.77;;;;;;;;;;4953365;28;20081;-59
2021/10/25 06:23:42;;;;;;;2.60;0.82;;;;;;;;;;4952019;28;20396;-58
2021/10/25 06:26:08;;;;;;;2.80;0.82;;;;;;;;;;4952838;28;20047;-58
2021/10/25 06:28:34;;;;;;;1.98;0.60;;;;;;;;;;4952696;28;20055;-59
2021/10/25 06:31:03;;;;;;;4.50;1.20;;;;;;;;;;4949527;28;20057;-60
2021/10/25 06:33:29;;;;;;;2.85;0.90;;;;;;;;;;4951488;28;20039;-60
2021/10/25 06:36:06;;;;;;;3.25;0.88;;;;;;;;;;4951013;28;20031;-59
2021/10/25 06:39:37;;;;;;;2.53;0.80;;;;;;;;;;4954400;28;20035;-59
2021/10/25 06:41:27;;;;;;;3.78;0.80;;;;;;;;;;4942735;28;20054;-59
2021/10/25 06:43:53;;;;;;;2.35;0.73;;;;;;;;;;4953519;28;20039;-57
2021/10/25 06:46:20;;;;;;;2.47;0.90;;;;;;;;;;4951394;28;20063;-59
2021/10/25 06:48:46;;;;;;;1.95;0.65;;;;;;;;;;4953099;28;20142;-61
2021/10/25 06:51:12;;;;;;;2.17;0.70;;;;;;;;;;4952572;28;20059;-58
2021/10/25 06:53:38;;;;;;;2.90;0.88;;;;;;;;;;4955494;28;20051;-56
2021/10/25 06:56:04;;;;;;;4.47;1.00;;;;;;;;;;4959893;28;20047;-59
2021/10/25 06:58:30;;;;;;;2.80;0.90;;;;;;;;;;4956774;28;20071;-60
2021/10/25 07:00:58;;;;;;;2.20;0.70;;;;;;;;;;4958256;28;20077;-58
2021/10/25 07:03:25;;;;;;;2.30;0.70;;;;;;;;;;4956269;28;20145;-58
2021/10/25 07:05:51;;;;;;;2.70;0.65;;;;;;;;;;4958339;28;20026;-58
2021/10/25 07:08:17;;;;;;;1.98;0.68;;;;;;;;;;4956782;28;20053;-59
2021/10/25 07:10:43;;;;;;;1.60;0.57;;;;;;;;;;4956699;28;20065;-60
2021/10/25 07:13:09;;;;;;;3.30;0.70;;;;;;;;;;4959345;28;20055;-60
2021/10/25 07:15:43;;;;;;;2.50;0.73;;;;;;;;;;4957215;28;20054;-60
2021/10/25 08:09:56;;;;;;;2.10;0.70;;;;;;;;;;4958998;28;20055;-56
2021/10/25 08:12:29;;;;;;;4.00;0.95;;;;;;;;;;4956942;28;20908;-59
2021/10/25 08:15:01;;;;;;;1.88;0.70;;;;;;;;;;4955784;28;20055;-58
2021/10/25 08:17:42;;;;;;;1.70;0.60;;;;;;;;;;4954739;28;20054;-59
2021/10/25 08:20:08;;;;;;;2.70;0.80;;;;;;;;;;4955660;28;20070;-60
2021/10/25 08:22:37;;;;;;;2.03;0.65;;;;;;;;;;4970961;28;20073;-58
2021/10/25 08:25:03;;;;;;;2.95;0.60;;;;;;;;;;4955800;28;20053;-58
2021/10/25 08:27:29;;;;;;;2.80;0.75;;;;;;;;;;4956662;28;20097;-60
2021/10/25 08:29:54;;;;;;;2.10;0.60;;;;;;;;;;4955199;28;20039;-60
2021/10/25 08:39:57;;;;;;;4.70;0.85;;;;;;;;;;4954789;28;20126;-61
2021/10/25 08:42:24;;;;;;;2.70;0.82;;;;;;;;;;4953899;28;20075;-60
2021/10/25 08:44:58;;;;;;;1.65;0.60;;;;;;;;;;4954997;28;20070;-60
2021/10/25 08:47:28;;;;;;;2.60;0.90;;;;;;;;;;4956320;28;20046;-60
2021/10/25 08:49:55;;;;;;;2.92;0.90;;;;;;;;;;4956505;28;20554;-59
2021/10/25 08:52:23;;;;;;;2.80;0.70;;;;;;;;;;4954224;28;20070;-60
2021/10/25 08:54:50;;;;;;;6.95;0.80;;;;;;;;;;4969717;28;20043;-60
2021/10/25 08:57:16;;;;;;;1.65;0.60;;;;;;;;;;4955380;28;20125;-60
2021/10/25 08:59:42;;;;;;;2.40;0.80;;;;;;;;;;4953592;28;20037;-59
2021/10/25 09:02:09;;;;;;;2.45;0.73;;;;;;;;;;4954618;28;20484;-60
2021/10/25 09:04:35;;;;;;;2.40;0.90;;;;;;;;;;4953476;28;20031;-60
2021/10/25 09:07:02;;;;;;;2.92;0.80;;;;;;;;;;4955040;28;20795;-60
2021/10/25 09:09:28;;;;;;;2.40;0.77;;;;;;;;;;4954320;28;20899;-59
2021/10/25 09:11:55;;;;;;;2.35;0.80;;;;;;;;;;4952844;28;20043;-59
2021/10/25 09:14:22;;;;;;;3.28;0.90;;;;;;;;;;4953394;28;20612;-59
2021/10/25 09:16:54;;;;;;;2.55;0.82;;;;;;;;;;4955035;28;20053;-60
2021/10/25 09:19:19;;;;;;;2.10;0.68;;;;;;;;;;4951658;28;20032;-60
2021/10/25 09:21:46;;;;;;;2.20;0.77;;;;;;;;;;4954075;28;20045;-58
2021/10/25 09:24:19;;;;;;;4.97;1.00;;;;;;;;;;4953398;28;20611;-58
2021/10/25 09:26:44;;;;;;;2.72;0.80;;;;;;;;;;4952810;28;20069;-59
2021/10/25 09:29:11;;;;;;;2.75;0.93;;;;;;;;;;4954311;28;20492;-59
2021/10/25 09:31:37;;;;;;;4.68;0.90;;;;;;;;;;4953162;28;20035;-59
2021/10/25 09:34:08;;;;;;;4.28;0.80;;;;;;;;;;4952682;28;20050;-60
2021/10/25 09:36:41;;;;;;;3.03;0.80;;;;;;;;;;4968686;28;20061;-59
2021/10/25 09:39:16;;;;;;;3.30;0.90;;;;;;;;;;4971754;28;20057;-58
2021/10/25 09:41:55;;;;;;;2.80;0.90;;;;;;;;;;4958289;28;20122;-57
2021/10/25 09:49:54;;;;;;;2.33;0.80;;;;;;;;;;4954307;28;20113;-58
2021/10/25 09:52:27;;;;;;;2.33;0.93;;;;;;;;;;4952848;28;20488;-59
2021/10/25 09:55:00;;;;;;;3.08;1.17;;;;;;;;;;4958011;28;20097;-59
2021/10/25 09:57:38;;;;;;;2.38;0.80;;;;;;;;;;4956076;28;20047;-59
2021/10/25 10:00:04;;;;;;;2.65;0.88;;;;;;;;;;4958867;28;20039;-58
2021/10/25 10:02:31;;;;;;;2.97;1.02;;;;;;;;;;4955791;28;20062;-58
2021/10/25 10:05:03;;;;;;;3.97;1.00;;;;;;;;;;4954317;28;20039;-59
2021/10/25 10:07:29;;;;;;;2.70;0.82;;;;;;;;;;4955674;28;20061;-57
2021/10/25 10:09:55;;;;;;;2.30;0.80;;;;;;;;;;4957106;28;20071;-58
2021/10/25 10:12:23;;;;;;;2.35;0.80;;;;;;;;;;4955842;28;20523;-58
2021/10/25 10:14:50;;;;;;;4.38;1.00;;;;;;;;;;4954242;28;20055;-59
2021/10/25 10:17:21;;;;;;;2.90;1.10;;;;;;;;;;4954106;28;20654;-59
2021/10/25 10:19:49;;;;;;;3.55;1.10;;;;;;;;;;4949972;28;20114;-60
2021/10/25 10:22:15;;;;;;;4.05;1.00;;;;;;;;;;4953536;28;20039;-60
2021/10/25 10:24:41;;;;;;;2.60;0.80;;;;;;;;;;4953119;28;20436;-57
2021/10/25 10:27:07;;;;;;;3.30;1.42;;;;;;;;;;4954087;28;20039;-59
2021/10/25 10:29:37;;;;;;;2.80;0.90;;;;;;;;;;4956304;28;20496;-59
2021/10/25 10:32:05;;;;;;;3.20;0.85;;;;;;;;;;4957125;28;20046;-58
2021/10/25 10:34:41;;;;;;;3.70;1.30;;;;;;;;;;4955183;28;20035;-59
2021/10/25 10:37:28;;;;;;;5.45;1.20;;;;;;;;;;4955350;28;20046;-58
2021/10/25 10:40:06;;;;;;;3.17;1.15;;;;;;;;;;4955869;28;20413;-57
2021/10/25 10:42:34;;;;;;;3.53;1.10;;;;;;;;;;4969165;28;20042;-57
2021/10/25 10:45:02;;;;;;;2.17;0.88;;;;;;;;;;4956444;28;20050;-59
2021/10/25 10:47:36;;;;;;;2.90;0.82;;;;;;;;;;4955282;28;20155;-58
2021/10/25 10:50:04;;;;;;;2.63;1.02;;;;;;;;;;4959205;28;20043;-59
2021/10/25 10:52:36;;;;;;;3.53;1.33;;;;;;;;;;4957728;28;20034;-59
2021/10/25 10:55:06;;;;;;;3.63;1.10;;;;;;;;;;4973313;28;20062;-58
2021/10/25 11:00:25;;;;;;;3.33;1.35;;;;;;;;;;4955544;28;20512;-59
2021/10/25 11:02:51;;;;;;;2.60;1.00;;;;;;;;;;4955907;28;20047;-56
2021/10/25 11:05:26;;;;;;;3.67;1.10;;;;;;;;;;4956453;28;20034;-59
2021/10/25 11:07:52;;;;;;;4.07;1.40;;;;;;;;;;4956640;28;20646;-57
2021/10/25 11:10:25;;;;;;;3.35;1.20;;;;;;;;;;4970815;28;20171;-59
2021/10/25 11:12:59;;;;;;;4.68;1.48;;;;;;;;;;4954702;28;20031;-59
2021/10/25 11:15:34;;;;;;;;;;;;;;;;;;4957127;28;20143;-59
2021/10/25 11:18:03;;;;;;;3.15;1.10;;;;;;;;;;4955299;28;19918;-59
2021/10/25 11:20:29;;;;;;;3.60;1.25;;;;;;;;;;4951395;28;20047;-60
2021/10/25 11:23:05;;;;;;;2.80;1.13;;;;;;;;;;4970213;28;20050;-60
2021/10/25 11:25:42;;;;;;;3.70;1.20;;;;;;;;;;4954441;28;20038;-59
2021/10/25 11:28:19;;;;;;;4.38;1.38;;;;;;;;;;4953577;28;20047;-60
2021/10/25 11:30:46;;;;;;;5.13;1.10;;;;;;;;;;4952490;28;20634;-60
2021/10/25 11:33:15;;;;;;;3.20;1.30;;;;;;;;;;4955424;28;20046;-60
2021/10/25 11:35:45;;;;;;;4.45;1.42;;;;;;;;;;4954615;28;20054;-60
2021/10/25 11:38:12;;;;;;;3.45;1.25;;;;;;;;;;4953197;28;20045;-59
2021/10/25 11:40:38;;;;;;;4.53;1.20;;;;;;;;;;4967697;28;20062;-58
2021/10/25 11:43:04;;;;;;;4.30;1.50;;;;;;;;;;4953729;28;20047;-59
2021/10/25 11:45:30;;;;;;;5.38;1.50;;;;;;;;;;4954630;28;20034;-60
2021/10/25 11:47:56;;;;;;;2.85;1.13;;;;;;;;;;4953990;28;20047;-58
2021/10/25 11:50:23;;;;;;;4.18;1.52;;;;;;;;;;4952902;28;20049;-61
2021/10/25 11:52:59;;;;;;;6.15;1.40;;;;;;;;;;4956462;28;20031;-59
2021/10/25 11:55:30;;;;;;;6.10;1.50;;;;;;;;;;4952917;28;20651;-59
2021/10/25 11:57:57;;;;;;;3.80;1.48;;;;;;;;;;4955782;28;20035;-56
2021/10/25 12:00:27;;;;;;;3.38;1.35;;;;;;;;;;4953605;28;20496;-59
2021/10/25 12:02:56;;;;;;;3.42;1.30;;;;;;;;;;4953190;28;20047;-57
2021/10/25 12:05:25;;;;;;;5.55;1.45;;;;;;;;;;4953658;28;20978;-58
2021/10/25 12:07:53;;;;;;;4.70;1.52;;;;;;;;;;4954117;28;20046;-59
2021/10/25 12:10:23;;;;;;;4.30;1.40;;;;;;;;;;4951846;28;20274;-58
2021/10/25 12:12:52;;;;;;;3.08;1.42;;;;;;;;;;4954977;28;20774;-59
2021/10/25 12:15:19;;;;;;;4.30;1.55;;;;;;;;;;4967648;28;20139;-60
2021/10/25 12:17:46;;;;;;;4.32;1.45;;;;;;;;;;4954709;28;20043;-61
2021/10/25 12:20:13;;;;;;;4.82;1.70;;;;;;;;;;4955975;28;20109;-58
2021/10/25 12:22:42;;;;;;;3.80;1.60;;;;;;;;;;4954871;28;20071;-59
2021/10/25 12:25:08;;;;;;;4.40;1.92;;;;;;;;;;4955626;28;20108;-60
2021/10/25 12:27:40;;;;;;;5.03;1.73;;;;;;;;;;4953380;28;20034;-59
2021/10/25 12:30:13;;;;;;;6.95;3.22;;;;;;;;;;4954468;28;20089;-59
2021/10/25 12:32:50;;;;;;;5.18;2.50;;;;;;;;;;4953790;28;20050;-59
2021/10/25 12:35:15;;;;;;;5.20;2.65;;;;;;;;;;4955550;28;20039;-59
2021/10/25 12:37:41;;;;;;;4.80;2.65;;;;;;;;;;4968175;28;20050;-59
2021/10/25 12:40:17;;;;;;;4.32;2.20;;;;;;;;;;4954225;28;20046;-59
2021/10/25 12:42:43;;;;;;;5.32;2.65;;;;;;;;;;4952768;28;20050;-55
2021/10/25 12:45:19;;;;;;;5.05;2.33;;;;;;;;;;4953362;28;20101;-59
2021/10/25 12:47:46;;;;;;;5.95;2.25;;;;;;;;;;4952401;28;20035;-59
2021/10/25 12:50:15;;;;;;;7.25;2.08;;;;;;;;;;4952860;28;20043;-60
2021/10/25 12:52:43;;;;;;;8.20;4.35;;;;;;;;;;4953107;28;20130;-59
2021/10/25 12:55:09;;;;;;;6.32;2.80;;;;;;;;;;4955332;28;20039;-57
2021/10/25 12:57:37;;;;;;;5.05;2.50;;;;;;;;;;4958006;28;20053;-58
2021/10/25 13:00:14;;;;;;;7.85;2.50;;;;;;;;;;4956191;28;20035;-59
2021/10/25 13:02:46;;;;;;;6.68;2.53;;;;;;;;;;4953598;28;20071;-60
2021/10/25 13:05:33;;;;;;;4.80;2.47;;;;;;;;;;4952813;28;20164;-61
2021/10/25 13:08:00;;;;;;;4.78;2.30;;;;;;;;;;4954108;28;20050;-60
2021/10/25 13:10:27;;;;;;;4.13;2.65;;;;;;;;;;4953167;28;20130;-60
2021/10/25 13:12:54;;;;;;;6.00;2.92;;;;;;;;;;4953081;28;20133;-58
2021/10/25 13:15:22;;;;;;;6.45;2.70;;;;;;;;;;4952132;28;20562;-60
2021/10/25 13:17:48;;;;;;;7.32;2.65;;;;;;;;;;4967996;28;20491;-58
2021/10/25 13:20:17;;;;;;;7.72;2.92;;;;;;;;;;4951103;28;20054;-60
2021/10/25 13:22:44;;;;;;;11.80;3.17;;;;;;;;;;4951214;28;20046;-59
2021/10/25 13:25:10;;;;;;;6.30;3.00;;;;;;;;;;4952141;28;20046;-57
2021/10/25 13:27:37;;;;;;;12.85;3.30;;;;;;;;;;4950156;28;20042;-60
2021/10/25 13:30:04;;;;;;;9.35;3.10;;;;;;;;;;4955005;28;20051;-59
2021/10/25 13:32:30;;;;;;;6.10;3.05;;;;;;;;;;4951547;28;20042;-58
2021/10/25 13:34:56;;;;;;;6.93;2.50;;;;;;;;;;4952302;28;20159;-59
2021/10/25 13:37:22;;;;;;;6.90;2.90;;;;;;;;;;4950890;28;20039;-59
2021/10/25 13:39:48;;;;;;;5.70;2.67;;;;;;;;;;4953128;28;20053;-58
2021/10/25 13:42:15;;;;;;;6.75;3.10;;;;;;;;;;4952313;28;20046;-58
2021/10/25 13:44:41;;;;;;;5.43;2.90;;;;;;;;;;4958731;28;20051;-58
2021/10/25 13:47:07;;;;;;;6.50;2.95;;;;;;;;;;4952018;28;20050;-58
2021/10/25 13:49:33;;;;;;;8.18;2.97;;;;;;;;;;4950548;28;20048;-58
2021/10/25 13:51:59;;;;;;;4.90;2.63;;;;;;;;;;4952735;28;20046;-60
2021/10/25 13:54:25;;;;;;;6.05;2.30;;;;;;;;;;4952784;28;20043;-60
2021/10/25 13:56:51;;;;;;;7.38;2.78;;;;;;;;;;4951723;28;20142;-59
2021/10/25 13:59:17;;;;;;;4.93;2.28;;;;;;;;;;4953370;28;20629;-58
2021/10/25 14:01:43;;;;;;;7.72;2.53;;;;;;;;;;4953209;28;20043;-57
2021/10/25 14:04:14;;;;;;;5.85;2.30;;;;;;;;;;4952490;28;20541;-57
2021/10/25 14:06:40;;;;;;;8.80;2.35;;;;;;;;;;4953280;28;20061;-59
2021/10/25 14:09:05;;;;;;;3.60;1.90;;;;;;;;;;4953718;28;20051;-59
2021/10/25 14:11:38;;;;;;;10.05;2.53;;;;;;;;;;4952653;28;20153;-59
2021/10/25 14:16:34;;;;;;;4.95;1.92;;;;;;;;;;4951443;28;20049;-59
2021/10/25 14:19:01;;;;;;;4.90;2.20;;;;;;;;;;4954291;28;20111;-59
2021/10/25 14:21:33;;;;;;;9.48;2.13;;;;;;;;;;4952918;28;20497;-59
2021/10/25 14:24:00;;;;;;;3.30;1.83;;;;;;;;;;4966767;28;20084;-59
2021/10/25 14:26:25;;;;;;;4.70;2.08;;;;;;;;;;4953356;28;20038;-59
2021/10/25 14:28:51;;;;;;;6.03;2.25;;;;;;;;;;4955581;28;20058;-59
2021/10/25 14:31:17;;;;;;;6.93;1.83;;;;;;;;;;4955354;28;20040;-59
2021/10/25 14:33:43;;;;;;;4.72;2.17;;;;;;;;;;4956915;28;20654;-59
2021/10/25 14:36:09;;;;;;;9.57;2.33;;;;;;;;;;4959133;28;20067;-56
2021/10/25 14:38:56;;;;;;;9.52;2.05;;;;;;;;;;4956327;28;20430;-60
2021/10/25 14:41:31;;;;;;;4.43;1.60;;;;;;;;;;4952650;28;20067;-59
2021/10/25 14:44:02;;;;;;;4.82;1.95;;;;;;;;;;4953710;28;20043;-60
2021/10/25 14:49:15;;;;;;;4.25;1.13;;;;;;;;;;4954448;28;20075;-59
2021/10/25 14:54:32;;;;;;;4.75;1.20;;;;;;;;;;4951475;28;20073;-60
2021/10/25 14:56:58;;;;;;;6.88;1.67;;;;;;;;;;4952224;28;20047;-56
2021/10/25 14:59:24;;;;;;;3.20;1.40;;;;;;;;;;4950856;28;20043;-57
2021/10/25 15:02:54;;;;;;;4.50;1.63;;;;;;;;;;4955921;28;20047;-59
2021/10/25 15:05:00;;;;;;;3.45;1.50;;;;;;;;;;4955116;28;20050;-60
2021/10/25 15:07:26;;;;;;;4.70;1.88;;;;;;;;;;4951411;28;20051;-59
2021/10/25 15:09:53;;;;;;;3.83;1.50;;;;;;;;;;4951106;28;20663;-59
2021/10/25 15:12:21;;;;;;;6.85;1.73;;;;;;;;;;4951875;28;20042;-58
2021/10/25 15:14:50;;;;;;;3.20;1.30;;;;;;;;;;4953468;28;20368;-59
2021/10/25 15:17:16;;;;;;;3.33;1.45;;;;;;;;;;4953994;28;20054;-57
2021/10/25 15:19:42;;;;;;;5.18;1.38;;;;;;;;;;4953277;28;20440;-60
2021/10/25 15:22:09;;;;;;;3.13;1.27;;;;;;;;;;4954583;28;20038;-60
2021/10/25 15:24:38;;;;;;;5.10;1.45;;;;;;;;;;4954568;28;20129;-58
2021/10/25 15:27:04;;;;;;;3.35;1.25;;;;;;;;;;4959614;28;20051;-58
2021/10/25 15:29:30;;;;;;;6.10;1.85;;;;;;;;;;4954504;28;20054;-58
2021/10/25 15:31:57;;;;;;;4.47;1.67;;;;;;;;;;4957597;28;20039;-59
2021/10/25 15:34:22;;;;;;;4.10;1.50;;;;;;;;;;4956711;28;20655;-58
2021/10/25 15:36:48;;;;;;;4.72;1.77;;;;;;;;;;4956206;28;20039;-58
2021/10/25 15:39:15;;;;;;;4.68;1.88;;;;;;;;;;4954370;28;20109;-60
2021/10/25 15:41:41;;;;;;;4.32;1.80;;;;;;;;;;4954245;28;20838;-60
2021/10/25 15:44:06;;;;;;;5.00;1.98;;;;;;;;;;4954755;28;20035;-59
2021/10/25 15:46:32;;;;;;;5.72;1.70;;;;;;;;;;4953742;28;20046;-59
2021/10/25 15:48:58;;;;;;;4.32;1.40;;;;;;;;;;4953299;28;20188;-59
2021/10/25 15:51:24;;;;;;;8.18;1.73;;;;;;;;;;4954112;28;20043;-58
2021/10/25 15:53:50;;;;;;;3.90;1.52;;;;;;;;;;4954851;28;20071;-59
2021/10/25 15:56:15;;;;;;;5.88;2.03;;;;;;;;;;4953650;28;20046;-59
2021/10/25 15:58:42;;;;;;;3.25;1.58;;;;;;;;;;4955032;28;20150;-58
2021/10/25 16:01:07;;;;;;;6.60;1.55;;;;;;;;;;4954533;28;20039;-58
2021/10/25 16:03:33;;;;;;;4.85;1.70;;;;;;;;;;4954032;28;20049;-58
2021/10/25 16:06:00;;;;;;;4.30;1.67;;;;;;;;;;4957084;28;20039;-60
2021/10/25 16:08:26;;;;;;;6.43;1.75;;;;;;;;;;4955232;28;20388;-59
2021/10/25 16:10:51;;;;;;;5.22;1.48;;;;;;;;;;4954988;28;20063;-58
2021/10/25 16:13:17;;;;;;;4.88;1.58;;;;;;;;;;4954847;28;20509;-58
2021/10/25 16:15:43;;;;;;;3.80;1.50;;;;;;;;;;4955162;28;20090;-58
2021/10/25 16:18:10;;;;;;;3.85;1.80;;;;;;;;;;4955538;28;20043;-60
2021/10/25 16:20:40;;;;;;;4.72;1.70;;;;;;;;;;4953449;28;20031;-59
2021/10/25 16:23:06;;;;;;;5.57;1.25;;;;;;;;;;4955579;28;20046;-59
2021/10/25 16:25:32;;;;;;;9.88;1.80;;;;;;;;;;4955592;28;20047;-60
2021/10/25 16:27:59;;;;;;;6.00;1.40;;;;;;;;;;4959876;28;20098;-59
2021/10/25 16:30:25;;;;;;;6.07;1.70;;;;;;;;;;4957458;28;20070;-59